TERMINUS DAM (TRM)

Elevation: 752' · KAWEAH R basin · Operator: US Army Corps of Engineers

Provisional data, subject to change.
Query executed Monday at 6:09:46   clock

Select a sensor type for a plot of data.
Note: Reservoir Flows are daily averages.

Earlier

Date RES ELE    STORAGE    RES CHG    TOC STO    ABV TOC    OUTFLOW    INFLOW    FNF    PPT INC    TEMP MN    TEMP MX    WINDLEN    EVP PAN   
 FEET   AF   AF   AF   AF   CFS   CFS   CFS   INCHES   DEG F   DEG F   MILES   INCHES  
03/28/2015 -- -- -- -- -- -- -- 245 0.00 -- -- -- --
03/29/2015 636.33 52788 -- 34424 -- 25 258 258 0.00 15 31 90 0.24
03/30/2015 636.70 53225 -- 35121 -- 25 253 253 0.00 15 32 104 0.26
03/31/2015 637.05 53641 --r 35818 -- 27 244 244 0.00 12 28 91 0.22
04/01/2015 637.39 54046 -- 36515 17531 29 239 239 0.00 8 24 77 0.19
04/02/2015 637.66 54369 323 37212 17157 29 198 198 0.00 5 23 77 0.19
04/03/2015 637.85 54596 227 37909 16687 30 152 152 0.00 10 28 104 0.24
04/04/2015 638.07 54861 265 38606 16255 31 172 172 0.00 11 27 101 0.24
04/05/2015 638.26 55090 229 39303 15787 30 153 153 0.00 6 23 91 0.20
04/06/2015 638.44 55307 217 40000 15307 29 144 144 0.00 8 22 78 0.17
04/07/2015 638.63 55537 230 45179 10358 37 156 156 0.00 5 16 137 0.10
04/08/2015 638.79 55731 194 50357 5374 49 152 152 0.00 5 19 85 0.15
04/09/2015 638.95 55926 195 55536 390 49 153 153 0.00 8 21 98 0.16
04/10/2015 639.12 56133 207 60714 -4581 43 155 155 0.00 9 26 99 0.23
04/11/2015 639.31 56365 232 65893 -9528 36 161 161 0.00 11 28 88 0.23
04/12/2015 639.52 56622 257 71071 -14449 36 174 174 0.00 11 30 88 0.25
04/13/2015 639.75 56904 -- 76250 -- 36 188 188 0.00 14 32 110 0.30
04/14/2015 639.97 57175 -- 81429 -- 35 178 178 0.00 10 23 93 0.18
04/15/2015 640.17 57421 246 86607 -29186 33 165 165 0.00 7 24 103 0.23
04/16/2015 640.34 57631 210 91786 -34155 34 149 149 0.00 10 28 118 0.27
04/17/2015 640.49 57817 186 96964 -39147 40 143 143 0.00 12 30 107 0.28
04/18/2015 640.64 58003 186 102143 -44140 47 151 151 0.00 14 31 110 0.29
04/19/2015 640.80 58202 199 107321 -49119 47 158 158 0.00 16 33 107 0.30
04/20/2015 640.96 58401 199 112500 -54099 50 160 160 0.00 16 32 96 0.26
04/21/2015 641.09 58563 162 117679 -59116 56 145 145 0.00 14 26 83 0.19
04/22/2015 641.23 58738 175 122857 -64119 63 158 158 0.00 12 24 71 0.18
04/23/2015 641.33 58863 125 128036 -69173 64 136 136 0.00 12 28 104 0.25
04/24/2015 641.49 59063 200 133214 -74151 65 171 -- 0.00 13 24 65 0.16
04/25/2015 641.67 59289 226 138393 -79104 65 183 -- 0.00 11 19 86 0.13
04/26/2015 641.87 59540 251 143571 -84031 64 197 -- 0.00 8 23 76 0.18
04/27/2015 -- -- -- -- -- -- -- -- -- -- -- -- --

Later | Latest

Warning! This data is preliminary and subject to revision.

Show TRM Map | Plot TRM Data | 1 Month TRM Data | Real-Time TRM Data | TRM Info